ACT        NSW        VIC        QLD        SA        WA        TAS        NT        INFO        CALC            by VK5ZD

Past Date/Time: (dd/mm/yyyy hh:mm or blank for current data)    

  Atmospheric Gas Attenuation - ITU Rec 676-11   --------------- dB/100km ---------------
WA Stations Date Time Temp RH % AH g/m3 Dew Point Wind Direction Speed kph Gust kph Barometer mB Rainfall Since 9am 24GHz 47GHz 76GHz 122GHz 134GHz 241GHz
Albany 04/05 09:00 14.3 97 11.92 13.8 2 1013.1 1 26.7 31.4 53.6 141.3 144.0 497.7
Albany Airport 04/05 19:40 13.9 93 11.15 12.8 0 0 1028.7 0 25.0 30.8 51.3 134.8 135.1 466.6
Badgingarra 04/05 19:40 15.9 54 7.31 6.8 15 17 1013.1 0 16.8 23.3 33.8 88.6 79.6 272.9
Barimunya 04/05 19:40 21.6 24 4.55 0.2 15 17 1013.1 0 10.8 18.2 22.6 58.5 44.4 150.0
Barrow Island 04/05 19:40 24.1 59 12.91 15.6 13 15 1015.4 0 28.1 29.7 51.3 135.4 139.8 484.6
Bedout Island 04/05 19:40 27.8 58 15.6 19 24 26 1015.1 0 33.5 32.9 59.7 157.8 168.5 585.1
Beverley 04/05 09:00 11.4 100 10.27 11.4 0 1013.1 0 23.3 29.5 48.2 126.8 125.0 431.2
Bickley 04/05 19:40 13.2 75 8.61 8.9 15 17 1013.1 0 19.6 26.1 40.1 105.3 99.3 341.5
Boolgeeda 04/05 19:40 24.9 26 5.95 4.2 9 11 1016.5 0 13.6 19.5 26.1 67.9 56.9 194.3
Bridgetown 04/05 19:40 10.1 93 8.8 9 0 0 1028.2 0 20.2 27.9 43.3 113.4 107.3 369.1
Brookton 04/05 09:00 13.4 78 9.07 9.7 19 1013.1 0.1 20.6 26.8 41.9 110.1 105.2 362.2
Broome 04/05 19:40 28.6 34 9.56 11.6 13 13 1014.2 0 20.9 23.4 36.4 95.6 92.3 319.0
Bunbury 04/05 19:40 12.7 90 10.02 11.1 4 4 1027.8 0 22.7 29.2 47.0 123.5 120.7 416.3
Busselton Airport 04/05 19:40 13.9 80 9.59 10.5 11 11 1027.6 0 21.7 28.1 44.5 116.7 112.9 389.0
Cape Leeuwin 04/05 19:40 17.2 81 11.86 13.9 32 37 1027.8 0 26.3 30.8 52.1 137.2 139.3 481.7
Cape Naturaliste 04/05 19:40 14.2 82 10.01 11.2 24 28 1027 0 22.6 28.6 46.0 120.9 118.2 407.6
Carnarvon 04/05 19:40 25.5 27 6.39 5.1 15 17 1017 0 14.5 19.9 27.3 71.2 61.1 209.1
Christmas Creek 04/05 19:40 22.9 20 4.09 -0.9 11 15 1019.3 0 9.8 17.6 21.0 54.3 39.4 132.4
Christmas Island 04/05 19:40 26.4 87 21.66 24.1 20 26 1010.5 0 46.5 44.4 88.4 233.9 261.8 909.5
Cocos Island 04/05 19:40 28.2 90 24.75 26.4 17 24 1010.2 0 52.8 49.6 101.7 269.4 305.7 1062.4
Collie East 04/05 19:40 8.9 88 7.71 7 0 0 1013.1 0 17.9 25.9 38.6 101.2 92.5 317.1
Coondewanna 04/05 19:40 21.1 24 4.42 -0.2 19 20 1013.1 0 10.5 18.2 22.3 57.8 43.4 146.2
Cunderdin Airport 04/05 19:40 14.1 69 8.37 8.5 11 13 1026.8 0 19.1 25.9 39.3 103.0 96.1 330.3
Curtin 04/05 19:40 26.5 28 7.01 6.5 17 19 1013.1 0 15.7 20.4 28.8 75.2 66.6 228.6
Dalwallinu 04/05 19:40 13.4 61 7.09 6 15 15 1025 0 16.4 24.0 34.6 90.3 80.2 274.6
Donnybrook 04/05 09:00 12.5 94 10.34 11.6 20 1013.1 0.4 23.4 29.2 47.8 125.8 124.2 428.6
Doongan 04/05 09:00 29.7 57 17.01 20.3 4 1013.4 0 36.3 34.4 64.0 169.2 183.2 636.5
Dwellingup 04/05 19:40 12.3 81 8.8 9.1 17 20 1027.7 0 20.1 27.2 42.0 110.2 104.3 358.7
Eliwana Airport 04/05 19:40 26.7 23 5.82 3.9 19 22 1013.1 0 13.2 18.8 25.0 65.2 54.2 185.1
Esperance 04/05 19:40 14.7 87 10.95 12.6 17 20 1028.7 0 24.5 30.2 49.9 131.1 130.8 451.8
Esperance Airport 04/05 19:40 14.5 83 10.32 11.6 7 9 1028.8 0 23.2 29.1 47.3 124.2 122.2 421.8
Eucla 04/05 19:40 13.8 86 10.25 11.5 6 7 1025.6 1 23.1 29.1 47.2 124.1 122.1 421.1
Eyre 04/05 09:00 17.7 69 10.41 12 15 1025.8 1 23.2 28.1 45.6 119.8 118.2 408.1
Fitzroy Crossing 04/05 19:40 27.1 27 6.99 6.5 1013.5 0 15.6 20.3 28.5 74.6 66.0 226.3
Forrest 04/05 19:40 15.7 69 9.23 10 13 15 1025.9 0 20.8 26.8 41.9 110.0 105.3 362.8
Fortescue Dave Forrest 04/05 19:40 21.9 23 4.44 0.2 17 19 1018.8 0 10.5 18.2 22.3 57.8 43.4 146.3
Garden Island 04/05 19:40 17.5 78 11.63 13.6 28 32 1026.3 0 25.8 30.3 50.9 133.8 135.3 468.0
Geraldton Airport 04/05 19:40 17.2 44 6.44 4.9 7 9 1022.3 0 14.9 22.0 30.5 79.6 68.6 234.3
Gerangamete (Cfa) 04/05 21:30 12.5 91 10.01 11.1 20 22 1013.1 9.6 22.7 28.7 46.4 122.0 119.5 412.1
Giles* 04/05 21:10 16.2 35 4.83 0.7 19 20 1021.7 0 11.5 20.0 25.3 65.6 50.9 172.1
Gingin Airport 04/05 19:40 15 77 9.87 11 13 15 1026.1 0 22.2 28.1 44.9 118.0 115.0 396.4
Golden Grove 04/05 19:40 14.8 48 6.08 3.9 7 9 1013.1 0 14.2 21.8 29.8 77.7 65.8 224.4
Gooseberry Hill 04/05 19:40 15.8 65 8.75 9.2 13 17 1013.1 0 19.8 25.6 39.4 103.4 97.8 336.7
Gudai-Darri Mine 04/05 19:40 22.8 23 4.67 0.7 17 19 1013.1 0 11.0 18.2 22.6 58.7 45.0 152.1
Halls Creek 04/05 21:10 28.5 30 8.39 9.2 24 32 1013.7 0 18.5 21.8 32.5 85.3 79.6 274.2
Hopetoun North 04/05 19:40 15.5 77 10.18 11.6 0 0 1028.2 0 22.9 28.6 46.1 121.0 118.7 409.4
Hyden 04/05 09:00 12.6 89 9.85 10.9 4 1013.1 0.3 22.3 28.3 45.6 120.0 117.1 403.7
Iron Bridge Mine 04/05 19:40 26.2 21 5.17 2.1 11 13 1013.1 0 11.9 18.1 23.2 60.3 48.1 163.3
Jacup 04/05 19:40 13.9 80 9.59 10.5 7 9 1028.7 0.2 21.7 28.1 44.5 116.8 113.0 389.3
Jandakot 04/05 19:40 13.2 85 9.76 10.7 7 9 1026.4 0 22.1 28.5 45.5 119.6 116.2 400.4
Jurien Bay 04/05 09:00 17.5 68 10.14 11.6 28 1025.3 0 22.7 27.7 44.6 117.2 114.8 396.3
Kalbarri 04/05 09:00 19.8 35 5.98 4 28 1022.2 0 13.8 20.8 28.0 72.9 61.2 208.8
Kalgoorlie-Boulder 04/05 19:40 11.9 78 8.26 8.2 9 9 1027 0 18.9 26.4 40.0 104.7 97.4 334.5
Kalumburu 04/05 21:10 27.5 80 21.17 23.7 0 0 1012.7 0 45.3 42.9 84.8 224.6 250.5 870.6
Karijini North 04/05 19:40 24.2 21 4.62 0.5 20 24 1017.8 0 10.8 18.0 22.3 57.6 44.0 148.5
Karnet 04/05 15:00 19.6 54 9.12 10 2 1013.1 0 20.4 25.1 39.0 102.3 97.8 337.0
Karratha 04/05 19:40 24.3 71 15.71 18.7 9 9 1015.2 0 34.0 34.4 63.0 166.3 178.0 617.7
Katanning Rs 04/05 19:40 11.7 77 8.05 7.8 9 9 1028 0 18.5 26.2 39.3 102.8 94.9 325.7
Koolan Island / Koolan Central 04/05 19:40 30.6 33 10.34 12.5 22 24 1013.1 0 22.4 23.9 38.1 100.2 98.6 341.2
Kununurra Airport 04/05 21:10 26.6 71 17.87 20.9 7 9 1012.2 0 38.4 37.2 70.4 186.1 203.1 705.4
Lake Grace 04/05 19:40 12.4 79 8.63 8.9 6 7 1028.2 0 19.7 26.9 41.3 108.3 101.9 350.2
Lancelin (Defence) 04/05 19:40 16.5 78 10.95 12.6 15 17 1024.5 0 24.4 29.4 48.5 127.6 127.4 440.0
Laverton 04/05 19:40 14.8 69 8.74 9.2 15 17 1025.6 0 19.8 26.3 40.4 105.9 100.0 344.0
Learmonth 04/05 19:40 24.8 71 16.16 19.2 6 6 1016.1 0 34.9 35.0 64.6 170.6 183.3 636.5
Legendre Island 04/05 19:40 27.9 50 13.52 16.8 19 20 1015.4 0 29.2 29.5 51.3 135.3 140.9 488.9
Leinster 04/05 19:40 15.4 51 6.7 5.3 9 11 1023.6 0 15.5 22.9 32.2 84.1 73.4 250.8
Leonora Airport 04/05 19:40 15.9 54 7.31 6.6 13 17 1025.2 0 16.7 23.7 34.3 89.7 80.4 275.7
Lombadina 04/05 19:40 28 33 8.97 10.2 11 13 1013.1 0 19.7 22.7 34.6 90.9 86.4 298.0
Mandora 04/05 19:40 25.4 23 5.41 2.8 11 15 1015.6 0 12.4 18.7 24.2 63.0 51.1 173.7
Mandurah 04/05 19:40 16.8 68 9.72 11 11 13 1026.8 0 21.8 27.3 43.4 113.8 110.4 380.6
Manjimup 04/05 19:40 12.1 90 9.65 10.5 0 0 1028.2 0 21.9 28.8 45.8 120.2 116.5 401.3
Marble Bar 04/05 19:40 25.2 20 4.66 0.6 15 17 1017.3 0 10.9 17.8 22.1 57.2 43.8 148.1
Mardie 04/05 19:40 25.4 55 12.95 15.9 2 4 1015.4 0 28.1 29.4 50.7 133.6 138.0 478.5
Meekatharra 04/05 19:40 18.1 31 4.79 0.7 13 15 1022.3 0 11.4 19.5 24.6 63.8 49.4 166.8
Millendon (Swan Valley) 04/05 19:40 14.3 78 9.58 10.5 0 2 1026.2 0 21.6 27.9 44.1 115.9 112.0 386.1
Morawa Airport 04/05 19:40 14.2 55 6.72 5.3 6 6 1023.7 0 15.6 23.2 32.8 85.5 74.7 255.5
Mount Keith 04/05 19:40 15.4 47 6.17 4.2 13 15 1013.1 0 14.4 21.7 29.9 78.0 66.4 226.4
Mount Magnet Airport 04/05 19:40 17.1 40 5.82 3.4 9 11 1023.2 0 13.6 21.2 28.4 74.0 61.5 209.5
Munglinup West 04/05 19:40 13.8 75 8.94 9.4 0 0 1028.6 0.2 20.3 27.0 41.9 109.8 104.2 358.7
Narrogin 04/05 09:00 11 93 9.31 10 4 1013.1 0 21.3 27.9 44.2 116.3 111.9 385.3
Newdegate 04/05 19:40 13 76 8.62 9 7 7 1028 0 19.7 26.7 41.0 107.3 100.9 347.0
Newman Airport 04/05 19:40 18.1 25 3.86 -2.2 7 9 1020.1 0 9.4 18.3 21.6 55.7 39.4 131.7
Norseman Airport 04/05 19:40 12.3 79 8.58 8.8 9 9 1027.4 0 19.6 26.8 41.1 107.8 101.2 348.0
North Island 04/05 19:40 21.6 65 12.33 14.7 35 43 1021.4 0 27.1 29.9 50.9 134.1 137.2 475.1
Onslow Airport 04/05 19:40 25 66 15.19 18.4 13 15 1016.4 0 32.9 33.3 60.2 159.0 169.2 587.1
Paraburdoo 04/05 19:40 24.8 21 4.78 1 15 15 1017.7 0 11.1 18.1 22.6 58.5 45.2 153.0
Paynes Find 04/05 09:00 14.5 62 7.71 7.3 6 1026.7 0 17.6 24.8 36.5 95.6 87.1 298.7
Pearce 04/05 19:40 15.4 71 9.33 10.2 7 9 1025.8 0 21.0 27.1 42.5 111.5 107.0 368.8
Perth 04/05 19:40 16.1 76 10.42 11.9 7 9 1026.4 0 23.3 28.7 46.6 122.5 120.9 417.2
Perth Airport 04/05 19:40 15.1 72 9.29 10.1 7 9 1026.3 0 21.0 27.1 42.5 111.5 107.0 368.5
Port Hedland 04/05 19:40 27.3 24 6.28 5 15 17 1015.7 0 14.2 19.4 26.3 68.7 58.6 200.5
Portable Btsa (Dfes) 04/05 19:30 24.5 22 4.92 1.8 9 9 1013.1 0 11.4 18.2 22.9 59.5 46.6 157.8
Portable Btsb (Dfes) 04/05 19:30 13.8 68 8.1 8 6 7 1013.1 0 18.5 25.1 37.8 99.1 91.8 315.5
Portable Btsd (Dfes) 04/05 19:30 12.9 69 7.78 7.5 11 13 1013.1 0 17.9 24.8 37.0 96.9 88.7 304.5
Portable Btsf (Dfes) 04/05 19:00 18.1 35 5.41 2.4 17 20 1013.1 0 12.7 20.1 26.4 68.6 55.7 189.2
Portable Btsh (Dfes) 04/05 19:30 14 78 9.41 10.3 4 4 1013.1 0.2 21.3 27.2 43.0 113.0 109.0 375.5
Portable Btsj (Dfes) 04/05 19:30 15.3 75 9.79 11 9 11 1013.1 0 22.1 27.4 43.8 115.2 112.2 387.1
Portable Btsk (Dfes) 04/05 19:30 24.8 60 13.66 16.6 6 6 1013.1 0 29.7 30.6 53.8 142.0 148.3 514.2
Portable Btsl (Dfes) 04/05 19:30 16.3 66 9.16 10.1 13 17 1013.1 0 20.7 26.1 40.8 107.0 102.5 353.2
Portable Btsm (Dfes) 04/05 19:30 18.1 27 4.17 -1 2 4 1013.1 0 10.1 18.4 22.3 57.8 42.4 142.3
Portable Btsn (Dfes) 04/05 19:30 17 41 5.93 3.9 9 11 1013.1 0 13.8 21.0 28.5 74.3 62.3 212.4
Portable Btso (Dfes) 04/05 19:30 11.5 85 8.78 9.1 4 6 1013.1 0 20.1 26.9 41.7 109.5 103.8 357.2
Ravensthorpe 04/05 09:00 13.5 89 10.41 11.8 2 1028.6 0.6 23.5 29.6 48.3 126.8 125.1 431.7
Red Rocks Point 04/05 19:40 16.2 80 11.03 12.7 22 26 1026.2 0.4 24.6 29.7 49.1 129.2 129.1 446.2
Rocky Gully South 04/05 19:40 13.6 92 10.83 12.3 11 13 1013.1 0 24.4 29.7 49.2 129.7 129.4 446.8
Roebourne Airport 04/05 19:40 23.9 62 13.41 16.2 9 11 1015.7 0 29.2 30.6 53.5 141.2 146.9 509.3
Rottnest Island 04/05 19:40 18.3 72 11.26 13.2 37 43 1025.4 0 25.0 29.3 48.8 128.2 128.7 445.0
Salmon Gums Rs 04/05 19:40 11.4 87 8.93 9.4 6 6 1013.1 0 20.4 27.2 42.4 111.4 106.0 364.9
Shannon 04/05 19:40 13.5 98 11.46 13.2 9 11 1013.1 1.4 25.8 30.9 52.1 137.3 138.7 479.3
Shark Bay Airport 04/05 19:40 23.6 30 6.38 5 15 17 1018.3 0 14.5 20.4 27.9 72.8 62.5 213.8
Solomon Airport 04/05 19:40 24.5 22 4.92 1.6 11 15 1016.9 0 11.4 18.3 23.1 59.8 46.7 158.4
Southern Cross Airport 04/05 19:40 14.4 61 7.54 7 13 15 1026.5 0 17.3 24.5 35.9 93.9 85.0 291.4
Swanbourne 04/05 19:40 15.9 93 12.59 14.7 13 15 1013.1 0 28.0 32.0 55.5 146.3 150.7 521.4
Telfer 04/05 19:40 21.1 22 4.05 -1.4 20 24 1018.4 0 9.7 17.9 21.3 55.1 39.8 133.7
Thevenard Island 04/05 19:30 26.1 57 13.95 16.9 11 13 1016.1 0 30.2 30.8 54.2 143.1 150.0 520.2
Troughton Island 04/05 21:10 27.7 87 23.27 25.3 9 9 1012.8 0 49.7 47.0 95.0 251.5 283.6 985.5
Truscott 04/05 21:10 26.1 89 21.79 24.1 0 0 1012.5 0 46.8 44.9 89.5 236.9 265.3 921.7
Wagin 04/05 09:00 11.5 100 10.33 11.5 1013.1 0 23.4 29.5 48.4 127.3 125.7 433.7
Walpole North 04/05 19:40 13.6 98 11.53 13.3 6 7 1028.2 0.8 25.9 31.6 53.1 139.8 141.2 487.8
Wandering 04/05 19:40 11.7 79 8.26 8.2 9 9 1013.1 0 19.0 25.9 39.5 103.5 96.5 331.6
West Angelas 04/05 19:40 20 26 4.49 0.3 11 15 1019.8 0 10.7 18.7 23.0 59.6 45.0 151.6
West Musgrave Airport 04/05 19:40 15.7 45 6.02 3.8 11 13 1013.1 0 14.0 21.5 29.3 76.3 64.4 219.5
Wiluna Airport 04/05 19:40 16.6 40 5.65 3 13 13 1023 0 13.2 21.1 28.0 72.8 60.0 203.9
Windy Harbour 04/05 09:00 12.8 97 10.87 12.4 6 1019 3 24.5 30.3 50.2 132.2 132.0 455.6
Witchcliffe West 04/05 19:40 12.2 99 10.68 12 9 9 1027.9 0 24.1 30.5 50.2 132.1 131.1 452.5
Wongan Hills 04/05 09:00 13 88 9.98 11.1 22 1027.3 0 22.6 29.0 46.6 122.5 119.7 412.6
Wyndham Airport 04/05 21:10 28.7 66 18.65 21.7 0 0 1012.2 0 39.8 37.6 71.9 190.2 208.7 725.4
Yampi Sound (Defence) 04/05 19:40 21.8 73 14 16.7 6 6 1016.4 0 30.6 32.4 57.5 151.8 159.3 552.4
York 04/05 09:00 11.5 94 9.71 10.5 0 1029 0 22.1 29.1 46.4 121.9 118.3 407.6

Last Refresh: 04-May-2026 21:18:26

Bureau of Meteorology